Time;durP1;ratioP1;P1;durP2;ratioP2;P2;SDS_P1;SDS_P2;PMS_P1;PMS_P2;Temp;Humidity;BMP_temperature;BMP_pressure;BME280_temperature;BME280_humidity;BME280_pressure;Samples;Min_cycle;Max_cycle;Signal;HPM_P1;HPM_P2
2021/12/21 00:00:49;;;;;;;29.10;12.18;;;5.50;99.90;;;;;;5018715;28;20736;-78
2021/12/21 00:03:15;;;;;;;28.05;11.93;;;5.50;99.90;;;;;;5016155;28;20211;-77
2021/12/21 00:05:42;;;;;;;27.52;10.88;;;5.30;99.90;;;;;;5015055;28;20164;-78
2021/12/21 00:08:11;;;;;;;26.17;11.65;;;5.00;99.90;;;;;;5014534;28;20270;-83
2021/12/21 00:10:38;;;;;;;25.63;11.80;;;4.80;99.90;;;;;;5015196;28;20563;-76
2021/12/21 00:13:09;;;;;;;27.73;12.48;;;4.40;99.90;;;;;;5014381;28;20758;-76
2021/12/21 00:18:21;;;;;;;26.42;11.00;;;4.20;99.90;;;;;;5013769;28;20204;-76
2021/12/21 00:23:34;;;;;;;27.25;12.00;;;4.30;99.90;;;;;;5014826;28;20184;-84
2021/12/21 00:26:09;;;;;;;30.00;11.98;;;4.40;99.90;;;;;;5015076;28;20165;-84
2021/12/21 00:28:49;;;;;;;34.63;12.52;;;4.40;99.90;;;;;;5014849;28;20216;-83
2021/12/21 00:31:15;;;;;;;26.88;12.18;;;4.40;99.90;;;;;;5014920;28;20207;-77
2021/12/21 00:33:45;;;;;;;33.67;13.48;;;4.50;99.90;;;;;;5014778;28;20529;-82
2021/12/21 00:36:10;;;;;;;28.50;12.65;;;4.50;99.90;;;;;;5015036;28;20239;-81
2021/12/21 00:38:36;;;;;;;48.28;16.20;;;4.60;99.90;;;;;;5014259;28;20752;-79
2021/12/21 00:41:02;;;;;;;27.77;13.18;;;4.40;99.90;;;;;;5014965;28;20203;-78
2021/12/21 00:43:27;;;;;;;36.40;14.65;;;4.50;99.90;;;;;;5016304;28;20227;-82
2021/12/21 00:45:53;;;;;;;27.25;13.13;;;4.60;99.90;;;;;;5017603;28;20171;-83
2021/12/21 00:48:19;;;;;;;43.10;13.75;;;4.70;99.90;;;;;;5016443;28;20258;-80
2021/12/21 00:50:45;;;;;;;41.50;13.57;;;4.90;99.90;;;;;;5018887;28;20204;-77
2021/12/21 00:53:12;;;;;;;25.02;12.75;;;4.90;99.90;;;;;;5018029;28;20181;-83
2021/12/21 00:55:38;;;;;;;38.40;15.35;;;4.90;99.90;;;;;;5018199;28;20195;-76
2021/12/21 00:58:04;;;;;;;22.55;13.18;;;4.70;99.90;;;;;;5017793;28;20189;-83
2021/12/21 01:00:30;;;;;;;23.83;12.90;;;4.60;99.90;;;;;;5019921;28;20168;-79
2021/12/21 01:03:00;;;;;;;39.35;14.02;;;4.80;99.90;;;;;;5019542;28;20172;-76
2021/12/21 01:05:35;;;;;;;29.52;13.70;;;4.60;99.90;;;;;;5021456;28;20195;-84
2021/12/21 01:08:03;;;;;;;34.08;13.32;;;4.20;99.90;;;;;;5020014;28;20207;-76
2021/12/21 01:15:59;;;;;;;31.55;13.07;;;4.30;99.90;;;;;;5015394;28;20208;-77
2021/12/21 01:18:32;;;;;;;28.80;13.18;;;4.50;99.90;;;;;;5014795;28;20195;-76
2021/12/21 01:21:06;;;;;;;39.78;14.38;;;4.50;99.90;;;;;;5015180;28;20165;-83
2021/12/21 01:26:35;;;;;;;27.50;14.20;;;4.60;99.90;;;;;;5015191;28;20178;-76
2021/12/21 01:37:05;;;;;;;35.92;14.95;;;4.30;99.90;;;;;;5015022;28;20180;-79
2021/12/21 01:42:04;;;;;;;38.92;14.68;;;4.10;99.90;;;;;;5014660;28;20173;-83
2021/12/21 01:49:58;;;;;;;40.35;15.68;;;3.40;99.90;;;;;;5014512;28;20235;-83
2021/12/21 01:52:25;;;;;;;32.00;14.57;;;3.60;99.90;;;;;;5014759;28;20173;-84
2021/12/21 01:54:53;;;;;;;35.50;14.40;;;3.60;99.90;;;;;;5014162;28;20653;-80
2021/12/21 01:57:18;;;;;;;43.13;14.50;;;3.50;99.90;;;;;;5013802;28;20188;-79
2021/12/21 01:59:46;;;;;;;35.50;16.00;;;3.40;99.90;;;;;;5014174;28;20175;-83
2021/12/21 02:02:14;;;;;;;43.55;15.45;;;3.30;99.90;;;;;;5014297;28;20168;-83
2021/12/21 02:04:41;;;;;;;30.35;15.50;;;3.40;99.90;;;;;;5014276;28;20165;-82
2021/12/21 02:07:07;;;;;;;36.50;16.75;;;3.40;99.90;;;;;;5013943;28;20165;-81
2021/12/21 02:09:39;;;;;;;42.58;15.95;;;3.30;99.90;;;;;;5013797;28;20236;-85
2021/12/21 02:12:05;;;;;;;40.47;15.07;;;3.30;99.90;;;;;;5013861;28;20160;-84
2021/12/21 02:14:32;;;;;;;45.35;16.23;;;3.40;99.90;;;;;;5013789;28;20175;-80
2021/12/21 02:17:18;;;;;;;39.28;16.27;;;3.40;99.90;;;;;;5014008;28;20218;-79
2021/12/21 02:22:45;;;;;;;28.52;14.50;;;3.60;99.90;;;;;;5013209;28;20176;-76
2021/12/21 02:27:58;;;;;;;36.22;15.98;;;3.80;99.90;;;;;;5013735;28;20216;-81
2021/12/21 02:30:24;;;;;;;33.47;16.83;;;3.80;99.90;;;;;;5013779;28;20632;-85
2021/12/21 02:32:52;;;;;;;33.53;14.85;;;3.90;99.90;;;;;;5014103;28;20194;-84
2021/12/21 02:35:18;;;;;;;39.83;15.80;;;3.70;99.90;;;;;;5012706;28;20169;-83
2021/12/21 02:37:44;;;;;;;36.03;15.65;;;3.60;99.90;;;;;;5013839;28;20271;-78
2021/12/21 02:40:10;;;;;;;41.00;16.17;;;3.60;99.90;;;;;;5013593;28;20172;-83
2021/12/21 02:42:36;;;;;;;39.17;16.02;;;3.50;99.90;;;;;;5012316;28;20528;-81
2021/12/21 02:45:01;;;;;;;36.25;14.45;;;3.40;99.90;;;;;;5013428;28;20172;-81
2021/12/21 02:47:27;;;;;;;36.25;16.27;;;3.40;99.90;;;;;;5013497;28;20236;-81
2021/12/21 02:49:53;;;;;;;35.42;15.27;;;3.40;99.90;;;;;;5013420;28;20179;-76
2021/12/21 02:52:18;;;;;;;30.85;14.50;;;3.50;99.90;;;;;;5013553;28;20223;-77
2021/12/21 02:54:44;;;;;;;31.38;14.77;;;3.40;99.90;;;;;;5013326;28;20176;-79
2021/12/21 02:57:09;;;;;;;44.92;15.82;;;3.20;99.90;;;;;;5013411;28;20202;-79
2021/12/21 02:59:35;;;;;;;46.13;15.35;;;3.40;99.90;;;;;;5013781;28;20265;-82
2021/12/21 03:02:01;;;;;;;28.40;14.63;;;3.30;99.90;;;;;;5013525;28;20225;-81
2021/12/21 03:04:26;;;;;;;36.95;15.68;;;3.10;99.90;;;;;;5013329;28;20179;-79
2021/12/21 03:12:10;;;;;;;37.25;15.77;;;3.20;99.90;;;;;;5014009;28;20181;-83
2021/12/21 03:14:36;;;;;;;44.03;14.98;;;3.30;99.90;;;;;;5013944;28;20195;-81
2021/12/21 03:17:03;;;;;;;32.92;15.13;;;3.50;99.90;;;;;;5013513;28;20219;-83
2021/12/21 03:19:29;;;;;;;38.38;15.57;;;3.60;99.90;;;;;;5013411;28;20211;-78
2021/12/21 03:21:54;;;;;;;48.88;15.65;;;3.30;99.90;;;;;;5013493;28;20168;-84
2021/12/21 03:24:20;;;;;;;35.22;15.68;;;3.30;99.90;;;;;;5014558;28;20169;-81
2021/12/21 03:26:46;;;;;;;33.72;15.23;;;3.30;99.90;;;;;;5015311;28;20175;-81
2021/12/21 03:29:13;;;;;;;23.17;13.98;;;3.30;99.90;;;;;;5015424;28;20208;-77
2021/12/21 03:31:38;;;;;;;30.92;13.77;;;3.40;99.90;;;;;;5016343;28;20165;-78
2021/12/21 03:34:05;;;;;;;33.20;14.18;;;3.10;99.90;;;;;;5019079;28;20234;-84
2021/12/21 03:36:31;;;;;;;39.28;14.05;;;3.20;99.90;;;;;;5019964;28;20149;-81
2021/12/21 03:41:25;;;;;;;25.58;14.63;;;3.10;99.90;;;;;;5017706;28;20660;-79
2021/12/21 03:43:50;;;;;;;42.00;15.77;;;3.00;99.90;;;;;;5017640;28;20629;-81
2021/12/21 03:46:16;;;;;;;36.70;15.77;;;3.00;99.90;;;;;;5020422;28;20264;-80
2021/12/21 03:48:45;;;;;;;31.95;15.50;;;2.90;99.90;;;;;;5020328;28;20208;-82
2021/12/21 03:51:13;;;;;;;34.33;14.75;;;2.90;99.90;;;;;;5022367;28;20171;-84
2021/12/21 03:53:39;;;;;;;37.90;14.50;;;3.00;99.90;;;;;;5021363;28;20259;-80
2021/12/21 03:56:40;;;;;;;30.58;14.85;;;3.10;99.90;;;;;;5023530;28;20194;-83
2021/12/21 03:58:56;;;;;;;33.65;12.98;;;3.10;99.90;;;;;;5025869;28;20204;-79
2021/12/21 04:01:22;;;;;;;31.58;13.68;;;3.20;99.90;;;;;;5018119;28;20172;-84
2021/12/21 04:03:48;;;;;;;44.45;15.30;;;3.20;99.90;;;;;;5017358;28;20161;-79
2021/12/21 04:06:13;;;;;;;34.50;15.32;;;3.00;99.90;;;;;;5016344;28;20514;-84
2021/12/21 04:08:39;;;;;;;33.70;14.20;;;2.80;99.90;;;;;;5017669;28;20208;-85
2021/12/21 04:11:05;;;;;;;30.25;13.65;;;2.80;99.90;;;;;;5017860;28;20838;-83
2021/12/21 04:13:31;;;;;;;37.05;15.23;;;2.70;99.90;;;;;;5017828;28;20173;-83
2021/12/21 04:16:00;;;;;;;22.83;13.32;;;2.80;99.90;;;;;;5018589;28;20256;-84
2021/12/21 04:18:25;;;;;;;37.72;13.82;;;2.70;99.90;;;;;;5015848;28;20197;-83
2021/12/21 04:20:51;;;;;;;35.80;13.55;;;2.80;99.90;;;;;;5016323;28;20219;-83
2021/12/21 04:23:17;;;;;;;41.42;13.65;;;2.80;99.90;;;;;;5016162;28;20215;-83
2021/12/21 04:25:43;;;;;;;28.45;14.45;;;2.80;99.90;;;;;;5016194;28;20223;-82
2021/12/21 04:28:09;;;;;;;30.42;13.73;;;2.70;99.90;;;;;;5015931;28;20270;-84
2021/12/21 04:30:34;;;;;;;36.50;15.30;;;2.80;99.90;;;;;;5016077;28;20168;-81
2021/12/21 04:33:00;;;;;;;37.67;16.25;;;2.70;99.90;;;;;;5016096;28;20626;-81
2021/12/21 04:35:26;;;;;;;30.40;14.00;;;2.80;99.90;;;;;;5018680;28;20923;-85
2021/12/21 04:37:58;;;;;;;29.58;13.48;;;3.00;99.90;;;;;;5016124;28;20227;-80
2021/12/21 04:40:37;;;;;;;30.83;13.70;;;3.00;99.90;;;;;;5018663;28;20165;-78
2021/12/21 04:43:04;;;;;;;21.65;12.52;;;2.90;99.90;;;;;;5015013;28;20179;-75
2021/12/21 04:45:49;;;;;;;33.85;14.70;;;2.90;99.90;;;;;;5018939;28;20287;-80
2021/12/21 04:48:15;;;;;;;26.98;13.15;;;2.90;99.90;;;;;;5032506;28;20216;-84
2021/12/21 04:50:42;;;;;;;31.35;14.43;;;2.90;99.90;;;;;;5034675;28;20180;-83
2021/12/21 04:53:08;;;;;;;42.28;13.35;;;2.80;99.90;;;;;;5034425;28;20188;-81
2021/12/21 04:55:33;;;;;;;45.53;15.55;;;2.70;99.90;;;;;;5016380;28;20169;-84
2021/12/21 04:57:59;;;;;;;30.10;13.68;;;2.80;99.90;;;;;;5017659;28;20194;-82
2021/12/21 05:00:25;;;;;;;32.08;14.05;;;2.80;99.90;;;;;;5017572;28;20255;-84
2021/12/21 05:02:51;;;;;;;38.45;16.52;;;2.90;99.90;;;;;;5015569;28;20208;-85
2021/12/21 05:05:16;;;;;;;36.63;15.35;;;2.80;99.90;;;;;;5014619;28;20177;-78
2021/12/21 05:07:47;;;;;;;32.20;15.20;;;2.90;99.90;;;;;;5015224;28;20212;-80
2021/12/21 05:10:13;;;;;;;50.50;15.40;;;3.00;99.90;;;;;;5015588;28;20252;-85
2021/12/21 05:12:39;;;;;;;27.30;14.63;;;2.90;99.90;;;;;;5015174;28;20173;-79
2021/12/21 05:15:06;;;;;;;20.77;12.85;;;3.00;99.90;;;;;;5014567;28;20222;-85
2021/12/21 05:17:32;;;;;;;35.83;15.27;;;2.90;99.90;;;;;;5014995;28;20216;-77
2021/12/21 05:19:58;;;;;;;41.90;15.50;;;2.90;99.90;;;;;;5015401;28;20184;-85
2021/12/21 05:22:23;;;;;;;34.65;14.38;;;2.90;99.90;;;;;;5015355;28;20169;-82
2021/12/21 05:24:51;;;;;;;40.60;15.93;;;2.70;99.90;;;;;;5015144;28;20164;-85
2021/12/21 05:27:16;;;;;;;26.88;14.85;;;2.80;99.90;;;;;;5014261;28;20268;-81
2021/12/21 05:29:43;;;;;;;26.73;14.45;;;2.70;99.90;;;;;;5015415;28;20598;-84
2021/12/21 05:32:08;;;;;;;41.50;15.40;;;2.60;99.90;;;;;;5015009;28;20165;-84
2021/12/21 05:34:34;;;;;;;28.50;14.52;;;2.70;99.90;;;;;;5013671;28;20243;-82
2021/12/21 05:37:05;;;;;;;30.55;13.65;;;2.80;99.90;;;;;;5015064;28;20613;-83
2021/12/21 05:39:39;;;;;;;33.95;14.00;;;2.80;99.90;;;;;;5014416;28;20161;-78
2021/12/21 05:42:06;;;;;;;26.98;13.35;;;2.80;99.90;;;;;;5014633;28;20179;-84
2021/12/21 05:44:32;;;;;;;29.60;13.70;;;2.70;99.90;;;;;;5014519;28;20177;-82
2021/12/21 05:46:57;;;;;;;37.47;13.45;;;2.70;99.90;;;;;;5014564;28;20187;-85
2021/12/21 05:49:23;;;;;;;28.70;13.05;;;2.80;99.90;;;;;;5014272;28;20731;-84
2021/12/21 05:51:49;;;;;;;20.88;11.80;;;2.70;99.90;;;;;;5013576;28;20200;-80
2021/12/21 05:54:18;;;;;;;29.38;12.20;;;2.70;99.90;;;;;;5014223;28;20637;-80
2021/12/21 05:56:44;;;;;;;22.00;12.77;;;2.60;99.90;;;;;;5014311;28;20637;-82
2021/12/21 05:59:10;;;;;;;26.80;13.63;;;2.70;99.90;;;;;;5012963;28;20192;-79
2021/12/21 06:01:36;;;;;;;19.45;11.30;;;2.80;99.90;;;;;;5014206;28;20183;-82
2021/12/21 06:04:02;;;;;;;29.88;13.07;;;2.60;99.90;;;;;;5014490;28;20176;-84
2021/12/21 06:06:31;;;;;;;25.23;13.07;;;2.40;99.90;;;;;;5014031;28;20698;-83
2021/12/21 06:08:58;;;;;;;23.33;12.13;;;2.50;99.90;;;;;;5014101;28;20278;-83
2021/12/21 06:11:24;;;;;;;23.98;11.73;;;2.40;99.90;;;;;;5014187;28;20253;-84
2021/12/21 06:22:41;;;;;;;33.35;12.60;;;2.40;99.90;;;;;;5013936;28;20532;-78
2021/12/21 06:25:23;;;;;;;21.10;12.02;;;2.60;99.90;;;;;;5014257;28;20175;-81
2021/12/21 06:27:42;;;;;;;36.78;12.90;;;2.30;99.90;;;;;;5013711;28;20676;-85
2021/12/21 06:30:08;;;;;;;20.80;11.55;;;2.30;99.90;;;;;;5013486;28;20165;-83
2021/12/21 06:32:34;;;;;;;33.97;12.32;;;2.40;99.90;;;;;;5013350;28;20165;-83
2021/12/21 06:35:00;;;;;;;19.85;10.80;;;2.40;99.90;;;;;;5008415;28;20173;-79
2021/12/21 06:37:26;;;;;;;26.40;12.60;;;2.60;99.90;;;;;;5013019;28;20184;-79
2021/12/21 06:39:52;;;;;;;37.40;13.52;;;2.60;99.90;;;;;;5013100;28;20264;-80
2021/12/21 06:42:18;;;;;;;22.25;12.43;;;2.70;99.90;;;;;;5012246;28;20599;-82
2021/12/21 06:44:47;;;;;;;29.48;12.20;;;2.40;99.90;;;;;;5012773;28;20176;-83
2021/12/21 06:52:42;;;;;;;30.45;12.55;;;2.10;99.90;;;;;;5012498;28;20176;-75
2021/12/21 06:55:08;;;;;;;23.25;12.15;;;1.80;99.90;;;;;;5012488;28;20252;-74
2021/12/21 06:57:34;;;;;;;28.25;12.40;;;1.80;99.90;;;;;;5012760;28;20223;-81
2021/12/21 07:00:01;;;;;;;31.50;13.40;;;1.80;99.90;;;;;;5013378;28;20176;-78
2021/12/21 07:02:27;;;;;;;31.77;12.70;;;1.80;99.90;;;;;;5012666;28;20160;-78
2021/12/21 07:04:53;;;;;;;35.40;13.02;;;1.70;99.90;;;;;;5012541;28;20532;-82
2021/12/21 07:07:19;;;;;;;31.23;12.88;;;1.90;99.90;;;;;;5013395;28;20161;-75
2021/12/21 07:09:54;;;;;;;28.85;12.05;;;1.90;99.90;;;;;;5016612;28;20679;-81
2021/12/21 07:20:13;;;;;;;31.13;13.52;;;1.50;99.90;;;;;;5018074;28;20168;-83
2021/12/21 07:22:39;;;;;;;36.83;14.37;;;1.60;99.90;;;;;;5014945;28;20176;-83
2021/12/21 07:25:05;;;;;;;26.02;11.98;;;1.60;99.90;;;;;;5016415;28;20184;-87
2021/12/21 07:27:31;;;;;;;32.33;14.13;;;1.60;99.90;;;;;;5016853;28;20229;-85
2021/12/21 07:29:56;;;;;;;26.92;13.85;;;1.50;99.90;;;;;;5016137;28;20586;-82
2021/12/21 07:32:22;;;;;;;35.22;13.00;;;1.40;99.90;;;;;;5016826;28;20165;-84
2021/12/21 07:34:47;;;;;;;24.85;12.88;;;1.60;99.90;;;;;;5017378;28;20174;-89
2021/12/21 07:37:13;;;;;;;19.98;12.45;;;1.80;99.90;;;;;;5016056;28;20168;-86
2021/12/21 07:39:39;;;;;;;26.83;12.82;;;1.80;99.90;;;;;;5016755;28;20542;-89
2021/12/21 07:42:05;;;;;;;25.35;12.10;;;1.80;99.90;;;;;;5016377;28;20168;-84
2021/12/21 07:44:31;;;;;;;23.15;12.52;;;1.80;99.90;;;;;;5015924;28;20203;-82
2021/12/21 07:46:57;;;;;;;27.95;12.00;;;1.60;99.90;;;;;;5015893;28;20189;-82
2021/12/21 07:49:23;;;;;;;43.53;12.02;;;1.80;99.90;;;;;;5015844;28;20212;-78
2021/12/21 07:51:49;;;;;;;42.25;12.70;;;1.70;99.90;;;;;;5014842;28;20176;-80
2021/12/21 07:54:18;;;;;;;37.03;12.27;;;1.80;99.90;;;;;;5005283;28;20194;-87
2021/12/21 07:56:44;;;;;;;38.42;11.57;;;1.80;99.90;;;;;;5016410;28;20200;-77
2021/12/21 07:59:11;;;;;;;27.27;12.27;;;1.70;99.90;;;;;;5016092;28;20185;-88
2021/12/21 08:01:37;;;;;;;43.03;12.43;;;1.70;99.90;;;;;;5015509;28;20220;-81
2021/12/21 08:04:03;;;;;;;26.23;11.70;;;1.80;99.90;;;;;;5012027;28;20177;-85
2021/12/21 08:06:32;;;;;;;34.33;14.15;;;1.70;99.90;;;;;;5014684;28;20180;-82
2021/12/21 08:08:58;;;;;;;28.23;12.98;;;1.50;99.90;;;;;;5012456;28;20755;-77
2021/12/21 08:14:01;;;;;;;26.48;12.05;;;1.20;99.90;;;;;;5013355;28;20191;-75
2021/12/21 08:16:27;;;;;;;28.60;12.10;;;1.20;99.90;;;;;;5021757;28;20291;-79
2021/12/21 08:18:53;;;;;;;26.42;11.65;;;1.10;99.90;;;;;;5011857;28;20279;-84
2021/12/21 08:21:19;;;;;;;35.88;12.80;;;1.20;99.90;;;;;;5011148;28;20449;-80
2021/12/21 08:23:45;;;;;;;42.30;17.52;;;1.20;99.90;;;;;;5011505;28;20422;-83
2021/12/21 08:26:12;;;;;;;30.58;13.82;;;1.20;99.90;;;;;;5015534;28;20203;-75
2021/12/21 08:28:38;;;;;;;33.75;13.45;;;1.30;99.90;;;;;;5015994;28;20747;-89
2021/12/21 08:31:03;;;;;;;35.08;13.23;;;1.50;99.90;;;;;;5015737;28;20173;-87
2021/12/21 08:33:29;;;;;;;29.05;13.40;;;1.50;99.90;;;;;;5015379;28;20480;-76
2021/12/21 08:35:55;;;;;;;27.80;12.07;;;1.60;99.90;;;;;;5013722;28;20179;-79
2021/12/21 08:38:21;;;;;;;29.63;12.67;;;1.60;99.90;;;;;;5015350;28;20262;-80
2021/12/21 08:40:49;;;;;;;24.55;11.68;;;1.60;99.90;;;;;;5015682;28;20176;-84
2021/12/21 08:43:25;;;;;;;28.42;12.95;;;1.60;99.90;;;;;;5014189;28;20234;-85
2021/12/21 08:45:52;;;;;;;39.03;14.20;;;1.60;99.90;;;;;;5015665;28;20188;-81
2021/12/21 08:48:19;;;;;;;27.70;12.67;;;1.70;99.90;;;;;;5014446;28;20208;-79
2021/12/21 08:50:46;;;;;;;26.35;11.60;;;1.60;99.90;;;;;;5015886;28;20614;-84
2021/12/21 08:53:13;;;;;;;27.77;12.60;;;1.70;99.90;;;;;;5016121;28;20157;-77
2021/12/21 08:55:40;;;;;;;21.75;11.95;;;1.70;99.90;;;;;;5016687;28;20161;-78
2021/12/21 08:58:07;;;;;;;21.60;11.77;;;1.70;99.90;;;;;;5016025;28;20211;-80
2021/12/21 09:00:33;;;;;;;30.73;12.68;;;1.60;99.90;;;;;;5017540;28;20157;-76
2021/12/21 09:02:59;;;;;;;16.38;10.60;;;1.60;99.90;;;;;;5023098;28;20168;-84
2021/12/21 09:05:28;;;;;;;21.40;11.95;;;1.90;99.90;;;;;;5024036;28;20164;-84
2021/12/21 09:07:54;;;;;;;23.20;11.98;;;1.90;99.90;;;;;;5015324;28;20211;-83
2021/12/21 09:10:22;;;;;;;28.87;11.57;;;1.90;99.90;;;;;;5015501;28;20637;-78
2021/12/21 09:12:48;;;;;;;35.17;12.50;;;1.80;99.90;;;;;;5015506;28;20172;-89
2021/12/21 09:15:16;;;;;;;19.08;10.80;;;1.80;99.90;;;;;;5012911;28;20537;-80
2021/12/21 09:17:42;;;;;;;22.40;12.23;;;2.00;99.90;;;;;;5013409;28;20200;-80
2021/12/21 09:20:09;;;;;;;28.30;12.23;;;2.10;99.90;;;;;;5014341;28;20176;-79
2021/12/21 09:22:36;;;;;;;26.10;11.52;;;2.10;99.90;;;;;;5011474;28;20600;-81
2021/12/21 09:25:03;;;;;;;20.95;12.50;;;2.20;99.90;;;;;;5011040;28;20177;-84
2021/12/21 09:27:33;;;;;;;30.50;12.82;;;2.10;99.90;;;;;;5014499;28;20219;-80
2021/12/21 09:29:58;;;;;;;41.10;11.73;;;2.20;99.90;;;;;;5014323;28;20172;-75
2021/12/21 09:32:25;;;;;;;28.83;11.65;;;2.30;99.90;;;;;;5014390;28;20180;-85
2021/12/21 09:34:55;;;;;;;26.00;12.45;;;2.30;99.90;;;;;;5013415;28;20202;-78
2021/12/21 09:37:21;;;;;;;25.83;11.65;;;2.20;99.90;;;;;;5015357;28;20223;-77
2021/12/21 09:39:51;;;;;;;32.50;12.60;;;2.30;99.90;;;;;;5014784;28;20175;-87
2021/12/21 09:42:20;;;;;;;17.40;10.68;;;2.40;99.90;;;;;;5015349;28;20255;-79
2021/12/21 09:44:46;;;;;;;22.73;10.65;;;2.40;99.90;;;;;;5021678;28;20173;-81
2021/12/21 09:47:14;;;;;;;22.20;10.93;;;2.60;99.90;;;;;;5026445;28;20191;-81
2021/12/21 09:49:41;;;;;;;23.42;12.15;;;2.60;99.90;;;;;;5025582;28;20618;-80
2021/12/21 09:52:09;;;;;;;27.85;11.38;;;2.60;99.90;;;;;;5026684;28;20176;-85
2021/12/21 09:54:36;;;;;;;16.77;10.80;;;2.70;99.90;;;;;;5023834;28;20286;-75
2021/12/21 09:57:03;;;;;;;26.55;11.30;;;2.70;99.90;;;;;;5012852;28;20200;-82
2021/12/21 09:59:29;;;;;;;20.75;10.50;;;2.70;99.90;;;;;;5012596;28;20271;-75
2021/12/21 10:01:57;;;;;;;21.20;10.18;;;2.60;99.90;;;;;;5012333;28;20215;-80
2021/12/21 10:04:23;;;;;;;14.88;9.50;;;2.60;99.90;;;;;;5012885;28;20168;-83
2021/12/21 10:06:51;;;;;;;34.92;9.40;;;2.70;99.90;;;;;;5011389;28;20195;-82
2021/12/21 10:09:20;;;;;;;19.25;10.23;;;2.80;99.90;;;;;;5009731;28;20208;-80
2021/12/21 10:11:48;;;;;;;16.02;9.30;;;3.00;99.90;;;;;;5007254;28;20176;-75
2021/12/21 10:14:16;;;;;;;22.83;9.20;;;3.20;99.90;;;;;;5011134;28;20168;-80
2021/12/21 10:16:43;;;;;;;21.08;11.10;;;3.30;99.90;;;;;;5010707;28;20179;-76
2021/12/21 10:19:19;;;;;;;17.05;10.25;;;3.30;99.90;;;;;;5010846;28;20790;-78
2021/12/21 10:21:45;;;;;;;18.70;9.90;;;3.30;99.90;;;;;;5008705;28;20326;-76
2021/12/21 10:24:25;;;;;;;21.75;11.20;;;3.40;99.90;;;;;;5009589;28;20171;-84
2021/12/21 10:27:06;;;;;;;19.23;9.38;;;3.50;99.90;;;;;;5014048;28;20633;-83
2021/12/21 10:29:44;;;;;;;23.60;9.85;;;3.50;99.90;;;;;;5003723;28;20751;-77
2021/12/21 10:32:21;;;;;;;13.70;10.13;;;3.60;99.90;;;;;;5012019;28;20168;-79
2021/12/21 10:34:56;;;;;;;18.88;8.82;;;3.40;99.90;;;;;;5009105;28;20172;-78
2021/12/21 10:37:27;;;;;;;13.05;8.82;;;3.20;99.90;;;;;;5008801;28;20716;-84
2021/12/21 10:40:28;;;;;;;26.60;11.02;;;3.10;99.90;;;;;;5011015;28;20442;-81
2021/12/21 10:43:01;;;;;;;28.27;9.88;;;3.00;99.90;;;;;;4997919;28;20199;-81
2021/12/21 10:45:36;;;;;;;16.23;9.70;;;3.10;99.90;;;;;;5011698;28;20164;-79
2021/12/21 10:48:04;;;;;;;27.60;10.20;;;3.10;99.90;;;;;;5012391;28;20218;-77
2021/12/21 10:50:33;;;;;;;22.60;10.75;;;3.30;99.90;;;;;;5010783;28;20179;-79
2021/12/21 10:53:03;;;;;;;18.95;9.15;;;3.20;99.90;;;;;;5030915;23;20220;-76
2021/12/21 10:55:37;;;;;;;26.00;9.70;;;3.20;99.90;;;;;;5002926;28;20188;-80
2021/12/21 10:58:12;;;;;;;17.40;9.38;;;3.40;99.90;;;;;;4998088;28;20180;-77
2021/12/21 11:00:44;;;;;;;18.42;8.15;;;3.40;99.90;;;;;;4995980;28;20177;-77
2021/12/21 11:03:10;;;;;;;15.98;7.57;;;3.60;99.90;;;;;;4998735;28;20168;-77
2021/12/21 11:05:37;;;;;;;14.35;6.78;;;3.50;99.90;;;;;;4990727;28;20173;-77
2021/12/21 11:08:08;;;;;;;16.50;8.50;;;3.50;99.90;;;;;;4990309;28;20231;-77
2021/12/21 11:10:36;;;;;;;10.93;7.13;;;3.50;99.90;;;;;;4997227;28;20231;-77
2021/12/21 11:13:10;;;;;;;15.02;6.90;;;3.50;99.90;;;;;;5002218;28;20172;-77
2021/12/21 11:15:39;;;;;;;12.40;7.50;;;3.50;99.90;;;;;;4996459;28;20205;-77
2021/12/21 11:18:13;;;;;;;11.73;7.60;;;3.50;99.90;;;;;;4997264;28;20275;-77
2021/12/21 11:20:42;;;;;;;25.77;7.68;;;3.40;99.90;;;;;;5010523;28;20841;-77
2021/12/21 11:23:11;;;;;;;22.75;8.50;;;3.30;99.90;;;;;;5011350;28;20211;-78
2021/12/21 11:25:37;;;;;;;19.08;7.53;;;3.30;99.90;;;;;;5011381;28;20178;-78
2021/12/21 11:28:06;;;;;;;14.45;6.50;;;3.40;99.90;;;;;;5010931;28;20208;-78
2021/12/21 11:30:34;;;;;;;9.43;6.60;;;3.50;99.90;;;;;;5010894;28;20177;-77
2021/12/21 11:33:02;;;;;;;9.77;6.60;;;3.70;99.90;;;;;;5011105;28;20165;-78
2021/12/21 11:38:04;;;;;;;11.50;6.80;;;4.00;99.90;;;;;;4990487;28;20205;-80
2021/12/21 11:40:34;;;;;;;14.70;6.97;;;4.10;99.90;;;;;;4989949;28;20180;-80
2021/12/21 11:43:08;;;;;;;11.02;6.25;;;4.00;99.90;;;;;;4992854;28;20184;-80
2021/12/21 11:45:41;;;;;;;13.95;6.97;;;4.10;99.90;;;;;;4992969;28;20183;-77
2021/12/21 11:48:09;;;;;;;18.95;8.07;;;4.10;99.90;;;;;;4992633;28;20197;-77
2021/12/21 11:50:36;;;;;;;13.90;6.30;;;4.20;99.90;;;;;;4993033;28;20207;-81
2021/12/21 11:53:08;;;;;;;11.75;6.22;;;4.20;99.90;;;;;;4992577;28;20181;-77
2021/12/21 11:55:37;;;;;;;11.85;5.40;;;4.10;99.90;;;;;;4996227;28;20223;-80
2021/12/21 11:58:21;;;;;;;12.77;6.38;;;4.20;99.90;;;;;;4993817;28;20193;-76
2021/12/21 12:01:00;;;;;;;13.30;6.22;;;4.30;99.90;;;;;;4996621;28;20622;-76
2021/12/21 12:03:28;;;;;;;25.48;5.60;;;4.20;99.90;;;;;;4994531;28;20180;-77
2021/12/21 12:06:04;;;;;;;12.85;5.97;;;4.20;99.90;;;;;;4994646;28;20177;-77
2021/12/21 12:08:50;;;;;;;9.18;4.65;;;4.10;99.90;;;;;;4994562;28;20662;-77
2021/12/21 12:11:42;;;;;;;9.98;4.82;;;4.10;99.90;;;;;;4995576;28;20230;-76
2021/12/21 12:14:09;;;;;;;9.25;4.32;;;4.30;99.90;;;;;;4994689;28;20569;-76
2021/12/21 12:16:43;;;;;;;7.63;5.05;;;4.30;99.90;;;;;;4995488;28;20590;-81
2021/12/21 12:19:11;;;;;;;12.73;5.03;;;4.40;99.90;;;;;;4994491;28;20732;-78
2021/12/21 12:21:36;;;;;;;6.45;4.53;;;4.40;99.90;;;;;;4995459;28;20173;-77
2021/12/21 12:24:04;;;;;;;9.52;5.55;;;4.30;99.90;;;;;;4994760;28;20180;-77
2021/12/21 12:26:31;;;;;;;12.40;5.18;;;4.40;99.90;;;;;;4994807;28;20168;-77
2021/12/21 12:29:17;;;;;;;8.90;4.95;;;4.50;99.90;;;;;;4995866;28;20217;-79
2021/12/21 12:32:00;;;;;;;20.50;6.00;;;4.50;99.90;;;;;;4992915;28;20245;-77
2021/12/21 12:34:29;;;;;;;20.90;5.65;;;4.50;99.90;;;;;;4995714;28;20701;-77
2021/12/21 12:36:56;;;;;;;8.13;6.43;;;4.70;99.90;;;;;;4995892;28;20165;-77
2021/12/21 12:39:37;;;;;;;8.30;5.50;;;4.60;99.90;;;;;;4995070;28;20204;-76
2021/12/21 12:42:10;;;;;;;10.43;4.90;;;4.60;99.90;;;;;;4995124;28;20165;-80
2021/12/21 12:44:38;;;;;;;7.97;4.45;;;4.80;99.90;;;;;;4994713;28;20185;-77
2021/12/21 12:47:08;;;;;;;6.65;4.90;;;4.60;99.90;;;;;;4992782;28;20165;-81
2021/12/21 12:49:36;;;;;;;6.18;4.65;;;4.40;99.90;;;;;;4992533;28;20218;-77
2021/12/21 12:52:18;;;;;;;6.78;3.85;;;4.50;99.90;;;;;;4994484;28;20176;-77
2021/12/21 12:54:54;;;;;;;7.45;4.32;;;4.30;99.90;;;;;;4993140;28;20185;-82
2021/12/21 12:57:39;;;;;;;8.52;4.93;;;4.50;99.90;;;;;;4994551;28;20172;-77
2021/12/21 13:00:16;;;;;;;7.60;4.25;;;4.50;99.90;;;;;;4993635;28;20259;-75
2021/12/21 13:02:51;;;;;;;7.03;4.40;;;4.60;99.90;;;;;;4995076;28;20645;-81
2021/12/21 13:05:17;;;;;;;9.95;4.25;;;4.80;99.90;;;;;;4993952;28;20180;-77
2021/12/21 13:07:44;;;;;;;8.73;4.60;;;4.80;99.90;;;;;;4987892;28;20202;-80
2021/12/21 13:10:11;;;;;;;14.05;4.55;;;4.90;99.90;;;;;;4994928;28;20260;-76
2021/12/21 13:12:37;;;;;;;13.15;6.50;;;5.00;99.90;;;;;;4995062;28;20188;-76
2021/12/21 13:15:07;;;;;;;10.18;5.00;;;4.90;99.90;;;;;;4995755;28;20212;-82
2021/12/21 13:17:33;;;;;;;15.15;6.18;;;5.00;99.90;;;;;;4999940;28;20185;-76
2021/12/21 13:19:58;;;;;;;19.33;6.22;;;5.10;99.90;;;;;;5000068;28;20563;-81
2021/12/21 13:22:26;;;;;;;6.65;5.63;;;5.10;99.90;;;;;;4994461;28;20177;-76
2021/12/21 13:24:53;;;;;;;19.00;6.70;;;5.10;99.90;;;;;;4992558;28;20177;-77
2021/12/21 13:27:21;;;;;;;13.60;7.00;;;5.00;99.90;;;;;;4992680;28;20169;-76
2021/12/21 13:29:48;;;;;;;12.30;6.72;;;4.80;99.90;;;;;;4991205;28;20282;-75
2021/12/21 13:32:19;;;;;;;18.00;7.43;;;4.80;99.90;;;;;;4992836;28;20196;-75
2021/12/21 13:34:52;;;;;;;10.75;6.22;;;4.90;99.90;;;;;;4993450;28;20212;-76
2021/12/21 13:37:19;;;;;;;14.48;6.43;;;5.00;99.90;;;;;;4974244;28;20173;-76
2021/12/21 13:39:57;;;;;;;21.23;7.45;;;4.90;99.90;;;;;;4979633;28;20173;-77
2021/12/21 13:42:27;;;;;;;17.25;6.25;;;4.90;99.90;;;;;;4994244;28;20240;-84
2021/12/21 13:45:05;;;;;;;14.10;5.93;;;4.90;99.90;;;;;;4993701;28;20501;-82
2021/12/21 13:47:36;;;;;;;15.38;6.13;;;5.00;99.90;;;;;;4993499;28;20228;-80
2021/12/21 13:50:29;;;;;;;7.95;5.65;;;5.00;99.90;;;;;;4993249;28;20191;-80
2021/12/21 13:53:01;;;;;;;12.15;7.25;;;5.10;99.90;;;;;;4991541;28;20192;-77
2021/12/21 13:55:30;;;;;;;8.77;5.30;;;5.10;99.90;;;;;;4993006;28;20224;-80
2021/12/21 13:57:58;;;;;;;12.98;5.53;;;5.20;99.90;;;;;;4989313;28;20292;-84